RKJK/KUV METAR and TAF weather

Enter ICAO airport designator
Station Type Date Time Source
RKJK METAR 2019/04/25 12:18 UTC NOAA

RKJK 251218Z 28009KT 3SM BR BKN006 BKN015 OVC020 11/11 A2981 RMK AO2A SLP099 $


Station Type Date Time Source
RKJK Decoded METAR 2019/04/25 12:18 UTC NOAA

Kunsan Ab, Korea, South (RKJK) 35-55N 126-37E 10M
Apr 25, 2019 - 08:18 AM EDT / 2019.04.25 1218 UTC
Wind: from the W (280 degrees) at 10 MPH (9 KT):0
Visibility: 3 mile(s):0
Sky conditions: overcast
Weather: mist
Temperature: 51 F (11 C)
Dew Point: 51 F (11 C)
Relative Humidity: 100%
Pressure (altimeter): 29.81 in. Hg (1009 hPa)
ob: RKJK 251218Z 28009KT 3SM BR BKN006 BKN015 OVC020 11/11 A2981 RMK AO2A SLP099
cycle: 12

Station Type Date Time Source
RKJK TAF 2019/04/25 10:57 UTC NOAA

TAF TAF
AMD RKJK 251045Z 2510/2613 27009KT 1600 -RA BR FEW008 BKN015 OVC030 QNH2974INS
TEMPO 2510/2512 6000 -SHRA SCT015
BECMG 2512/2513 28009KT 4800 -RA BKN010 QNH2976INS
TEMPO 2515/2518 BKN006
BECMG 2517/2518 30009KT 9999 NSW SCT015 BKN020 QNH2980INS
TEMPO 2605/2613 31012G18KT TX20/2606Z TN08/2521Z

Example: see airport list